• Join FlightAware (Why Join?)
  • Login
  • US Flag 
09:54PM EST


 

Airport Tracker/Info


-or-


 

Live Flight TrackerFlight Track Log ✈ RPA4233 ✈ 28-Mar-2014 ✈ KORD - KDTW

Flight Track Log - Related Links

Times and Time Zones

All times are in EDT time to prevent confusion due to time zone crossing. See the RPA4233 flight status page for this flight to view local times or setup timezone preferences in your user account.

Time Position Orientation Groundspeed Altitude Reporting Facility
EDT Latitude Longitude Course Direction KTS MPH feet Rate Location/Type
08:05PM 41.9833 -87.8833 37° Northeast 149 171 1,800  Level Chicago TRACON
08:06PM 42.0333 -87.8333 37° Northeast 215 247 3,700 1,600 Climbing Chicago TRACON
08:07PM 42.1000 -87.8000 20° North 271 312 5,000 1,603 Climbing Chicago TRACON
08:09PM 42.2028 -87.8147 354° North 272 313 7,600 2,295 Climbing Chicago Center
08:10PM 42.2883 -87.8186 358° North 283 326 10,700 2,688 Climbing Chicago Center
08:11PM 42.3742 -87.8158 North 297 342 13,200 2,081 Climbing Chicago Center
08:12PM 42.4642 -87.7947 10° North 326 375 15,000 1,887 Climbing Chicago Center
08:13PM 42.5600 -87.7683 11° North 344 396 17,100 1,839 Climbing Chicago Center
08:14PM 42.6283 -87.6636 48° Northeast 372 428 18,800 1,694 Climbing Chicago Center
08:15PM 42.6653 -87.5225 70° East 393 452 20,600 1,694 Climbing Chicago Center
08:16PM 42.7117 -87.3469 70° East 417 480 22,300 1,161 Climbing Chicago Center
08:17PM 42.7514 -87.1933 71° East 433 498 23,000 336 Climbing Chicago Center
08:18PM 42.7900 -87.0408 71° East 432 497 23,000  Level Chicago Center
08:19PM 42.8328 -86.8883 69° East 431 496 23,000  Level Chicago Center
08:20PM 42.8714 -86.7361 71° East 430 495 23,000  Level Chicago Center
08:21PM 42.9106 -86.5825 71° East 430 495 23,000  Level Chicago Center
08:22PM 42.9575 -86.3994 71° East 430 495 23,000  Level Chicago Center
08:23PM 42.9969 -86.2450 71° East 430 495 23,000  Level Chicago Center
08:24PM 43.0353 -86.0919 71° East 429 494 23,000  Level Chicago Center
08:25PM 43.0758 -85.9269 71° East 420 483 23,000  Level Chicago Center
08:26PM 43.1144 -85.7708 71° East 427 491 23,000  Level Chicago Center
08:27PM 43.1519 -85.6178 71° East 427 491 23,000  Level Chicago Center
08:28PM 43.1894 -85.4642 71° East 426 490 23,000  Level Chicago Center
08:29PM 43.2272 -85.3114 71° East 426 490 23,000  Level Chicago Center
08:31PM 43.2350 -85.1528 86° East 422 486 23,000  Level Chicago Center
08:32PM 43.2006 -84.9653 104° East 422 486 23,000  Level Chicago Center
08:33PM 43.1714 -84.8069 104° East 426 490 23,000  Level Chicago Center
08:34PM 43.1417 -84.6481 104° East 427 491 23,000  Level Chicago Center
08:35PM 43.1108 -84.4883 105° East 431 496 23,000 -528 Level Chicago Center
08:36PM 43.0753 -84.3322 107° East 431 496 21,900 -1,694 Descending Chicago Center
08:37PM 43.0208 -84.1958 119° Southeast 410 472 19,500 -2,419 Descending Chicago Center
08:38PM 42.9600 -84.0406 118° Southeast 388 447 16,900 -2,343 Descending Chicago Center
08:38PM 42.9222 -83.9514 120° Southeast 374 430 15,400 -2,118 Descending Cleveland Center
08:39PM 42.8892 -83.8633 117° Southeast 364 419 13,900 -2,100 Descending Cleveland Center
08:39PM 42.8736 -83.8272 120° Southeast 350 403 13,300 -1,742 Descending Cleveland Center
08:40PM 42.8428 -83.7508 119° Southeast 344 396 12,100 -1,164 Descending Cleveland Center
08:41PM 42.8108 -83.7236 148° Southeast 319 367 12,000 -97 Descending Cleveland Center
08:41PM 42.7650 -83.6936 154° Southeast 322 371 12,000  Level Cleveland Center
08:42PM 42.7369 -83.6758 155° Southeast 318 366 12,000  Level Cleveland Center
08:42PM 42.6850 -83.6450 156° South 318 366 12,000  Level Cleveland Center
08:43PM 42.6547 -83.6297 160° South 318 366 12,000  Level Cleveland Center
08:43PM 42.5778 -83.5958 162° South 317 365 12,000  Level Cleveland Center
08:44PM 42.5167 -83.5728 164° South 318 366 12,000  Level Cleveland Center
08:44PM 42.4925 -83.5633 164° South 316 364 12,000 -290 Level Cleveland Center
08:45PM 42.4333 -83.5417 165° South 314 361 11,700 -545 Descending Cleveland Center
08:45PM 42.4192 -83.5358 163° South 304 350 11,500 -764 Descending Cleveland Center
08:46PM 42.3478 -83.5114 166° South 284 327 11,000 -500 Descending Cleveland Center
08:46PM 42.3428 -83.5078 152° Southeast 286 329 11,000 -492 Level Cleveland Center
08:47PM 42.2744 -83.4839 165° South 243 280 10,500 -581 Descending Cleveland Center
08:47PM 42.2678 -83.4811 163° South 281 323 10,400 -655 Descending Cleveland Center
08:48PM 42.2256 -83.4911 190° South 173 199 9,900 -774 Descending Cleveland Center
08:48PM 42.2203 -83.4964 217° Southwest 195 224 9,600 -1,522 Descending Cleveland Center
08:49PM 42.1789 -83.5267 208° Southwest 182 209 8,200 -1,574 Descending Cleveland Center
08:49PM 42.1756 -83.5314 226° Southwest 185 213 8,000 -222 Descending Cleveland Center
08:50PM 42.1403 -83.5633 214° Southwest 184 212 8,000  Level Cleveland Center
08:50PM 42.1319 -83.5692 207° Southwest 185 213 8,000 -358 Level Cleveland Center
08:51PM 42.0931 -83.6044 214° Southwest 182 209 7,600 -581 Descending Cleveland Center
08:52PM 42.0861 -83.6086 204° Southwest 184 212 7,400 -1,612 Descending Cleveland Center
08:52PM 42.0444 -83.6339 204° Southwest 189 217 5,800 -1,672 Descending Cleveland Center
08:53PM 42.0419 -83.6339 180° South 191 220 5,700 -1,574 Descending Cleveland Center
08:53PM 42.0175 -83.5767 120° Southeast 177 204 4,200 -1,452 Descending Cleveland Center
08:54PM 42.0181 -83.5767 360° North 183 211 4,200 -182 Level Cleveland Center
08:55PM 42.0372 -83.5147 67° East 171 197 4,000 -197 Descending Cleveland Center
08:55PM 42.0350 -83.5208 244° Southwest 179 206 4,000 -109 Level Cleveland Center
08:55PM 42.0694 -83.4800 41° Northeast 167 192 3,900  Descending Cleveland Center
08:56PM 42.0678 -83.4814 212° Southwest 181 208 4,000 -1,082 Climbing Cleveland Center
08:57PM 42.1092 -83.4519 28° Northeast 164 189 2,800 -1,180 Descending Cleveland Center
08:57PM 42.1089 -83.4519 180° South 173 199 2,800 -686 Level Cleveland Center
08:58PM 42.1447 -83.4264 28° Northeast 161 185 2,000 -850 Descending Cleveland Center
08:59PM 42.1783 -83.3997 30° Northeast 138 159 1,200 -885 Descending Cleveland Center
08:59PM 42.1836 -83.3975 17° North 142 163 1,100 -333 Descending Cleveland Center
09:00PM 42.2150 -83.3747 28° Northeast 140 161 800 -290 Descending Cleveland Center